deformed-offering

Nearby METAR Reports

 

KNUQ - Moffett Nas/Mtn, California, USA
Distance from station: N 9mi, 14km
Updated: Sat, 21-Sep-2019 2:56am PDT

 
Barometer: 29.94 inHg , 1013.9 hPa
2019/09/21 09:56 KNUQ 210956Z A2994 RMK AO2 SLP143 PWINO $
KSJC - San Jose, California, USA
Distance from station: NE 9mi, 14km
Updated: Sat, 21-Sep-2019 2:53am PDT
Clear
Clear
 Wind from SSE
Wind: SSE 3 mph , 6 km/h
Temperature: 61°F , 16°C
Dew Point: 50°F , 10°C
Humidity: 68%
Barometer: 29.94 inHg , 1013.9 hPa
Clouds: Clear
Visibility: 10 miles , 16 km
2019/09/21 09:53 KSJC 210953Z AUTO 15003KT 10SM CLR 16/10 A2994 RMK AO2 SLP137 T01560100
 
KRHV - San Jose/Reid, California, USA
Distance from station: ENE 12mi, 19km
Updated: Fri, 20-Sep-2019 9:52pm PDT
NOT Current
Clear
Clear
 Wind from calm
Wind: Calm
Temperature: 70°F , 21°C
Dew Point: 48°F , 9°C
Humidity: 46%
Barometer: 29.94 inHg , 1013.9 hPa
Clouds: Clear
Visibility: 10 miles , 16 km
2019/09/21 04:52 KRHV 210452Z 00000KT 10SM SKC 21/09 A2994
KPAO - Palo Alto, California, USA
Distance from station: NNW 14mi, 23km
Updated: Fri, 20-Sep-2019 8:47pm PDT
NOT Current
Clear
Clear
 Wind from NNW
Wind: NNW 8 mph , 13 km/h
Temperature: 68°F , 20°C
Dew Point: 54°F , 12°C
Humidity: 60%
Barometer: 29.92 inHg , 1013.2 hPa
Clouds: Clear
Visibility: 10 miles , 16 km
2019/09/21 03:47 KPAO 210347Z 34007KT 10SM SKC 20/12 A2992
 
KSQL - San Carlos Airpo, California, USA
Distance from station: NW 21mi, 34km
Updated: Fri, 20-Sep-2019 8:47pm PDT
NOT Current
Clear
Clear
 Wind from WNW
Wind: WNW 7 mph , 11 km/h
Temperature: 72°F , 22°C
Dew Point: 46°F , 8°C
Humidity: 41%
Barometer: 29.92 inHg , 1013.2 hPa
Clouds: Clear
Visibility: 10 miles , 16 km
2019/09/21 03:47 KSQL 210347Z 29006KT 10SM SKC 22/08 A2992 RMK LAST
KE16 - San Martin, California, USA
Distance from station: ESE 27mi, 43km
Updated: Sat, 21-Sep-2019 2:55am PDT
Mostly Cloudy
Mostly Cloudy
 Wind from calm
Wind: Calm
Temperature: 57°F , 14°C
Dew Point: 48°F , 9°C
Humidity: 72%
Barometer: 29.98 inHg , 1015.2 hPa
Clouds: Mostly Cloudy
Visibility: 10 miles , 16 km
Cloud details: Mostly Cloudy 5000 ft
2019/09/21 09:55 KE16 210955Z AUTO 00000KT 10SM BKN050 14/09 A2998 RMK AO2
 
KWVI - Watsonville, California, USA
Distance from station: SSE 27mi, 44km
Updated: Fri, 13-Sep-2019 2:53pm PDT
NOT Current
Clear
Clear
 Wind from W
Wind: W 10 mph , 17 km/h
Temperature: 99°F , 37°C
Dew Point: 39°F , 4°C
Humidity: 13%
Barometer: 29.93 inHg , 1013.5 hPa
Clouds: Clear
Visibility: 10 miles , 16 km
2019/09/13 21:53 KWVI 132153Z AUTO 27009KT 10SM CLR 37/04 A2993 RMK AO2 SLP133 T03670039
KHWD - Hayward, California, USA
Distance from station: N 28mi, 44km
Updated: Sat, 21-Sep-2019 2:54am PDT
Clear
Clear
 Wind from ENE
Wind: ENE 5 mph , 7 km/h
Temperature: 61°F , 16°C
Dew Point: 48°F , 9°C
Humidity: 63%
Barometer: 29.93 inHg , 1013.5 hPa
Clouds: Clear
Visibility: 10 miles , 16 km
2019/09/21 09:54 KHWD 210954Z AUTO 06004KT 10SM CLR 16/09 A2993 RMK AO2 SLP145 T01610094
 
KSFO - San Francisco, California, USA
Distance from station: NW 30mi, 49km
Updated: Sat, 21-Sep-2019 2:56am PDT
Clear
Clear
 Wind from W
Wind: W 5 mph , 7 km/h
Temperature: 63°F , 17°C
Dew Point: 54°F , 12°C
Humidity: 73%
Barometer: 29.93 inHg , 1013.5 hPa
Clouds: Clear
Visibility: 10 miles , 16 km
2019/09/21 09:56 KSFO 210956Z 26004KT 10SM CLR 17/12 A2993 RMK AO2 SLP136 T01720117
KHAF - Half Moon Bay, California, USA
Distance from station: WNW 31mi, 50km
Updated: Sat, 21-Sep-2019 3:00am PDT
Overcast
Overcast
 Wind from calm
Wind: Calm
Temperature: 52°F , 11°C
Dew Point: 50°F , 10°C
Humidity: 94%
Barometer: 29.95 inHg , 1014.2 hPa
Clouds: Overcast
Visibility: 10 miles , 16 km
Cloud details: Overcast 300 ft
2019/09/21 10:00 KHAF 211000Z AUTO 00000KT 10SM OVC003 11/10 A2995 RMK AO2
 
KOAK - Oakland, California, USA
Distance from station: NNW 31mi, 50km
Updated: Sat, 21-Sep-2019 2:53am PDT
Clear
Clear
 Wind from ENE
Wind: ENE 6 mph , 9 km/h
Temperature: 61°F , 16°C
Dew Point: 48°F , 9°C
Humidity: 63%
Barometer: 29.95 inHg , 1014.2 hPa
Clouds: Clear
Visibility: 10 miles , 16 km
2019/09/21 09:53 KOAK 210953Z 06005KT 10SM CLR 16/09 A2995 RMK AO2 SLP139 T01560094
KLVK - Livermore, California, USA
Distance from station: NNE 31mi, 51km
Updated: Sat, 21-Sep-2019 2:53am PDT
Clear
Clear
 Wind from calm
Wind: Calm
Temperature: 57°F , 14°C
Dew Point: 46°F , 8°C
Humidity: 67%
Barometer: 29.95 inHg , 1014.2 hPa
Clouds: Clear
Visibility: 10 miles , 16 km
2019/09/21 09:53 KLVK 210953Z AUTO 00000KT 10SM CLR 14/08 A2995 RMK AO2 SLP137 T01390078
 
KCVH - Hollister Muni, California, USA
Distance from station: SE 42mi, 68km
Updated: Sat, 21-Sep-2019 3:00am PDT
Clear
Clear
 Wind from calm
Wind: Calm
Temperature: 57°F , 14°C
Dew Point: 46°F , 8°C
Humidity: 67%
Barometer: 29.97 inHg , 1014.9 hPa
Clouds: Clear
Visibility: 10 miles , 16 km
2019/09/21 10:00 KCVH 211000Z AUTO 00000KT 10SM CLR 14/08 A2997 RMK A01
KSNS - Salinas, California, USA
Distance from station: SSE 48mi, 77km
Updated: Sat, 21-Sep-2019 2:53am PDT
Clear
Clear
 Wind from calm
Wind: Calm
Temperature: 55°F , 13°C
Dew Point: 48°F , 9°C
Humidity: 77%
Barometer: 29.95 inHg , 1014.2 hPa
Clouds: Clear
Visibility: 10 miles , 16 km
2019/09/21 09:53 KSNS 210953Z AUTO 00000KT 10SM CLR 13/09 A2995 RMK AO2 SLP150 T01330089
 
KMRY - Monterey, California, USA
Distance from station: SSE 49mi, 78km
Updated: Sat, 21-Sep-2019 2:54am PDT
Clear
Clear
 Wind from calm
Wind: Calm
Temperature: 59°F , 15°C
Dew Point: 45°F , 7°C
Humidity: 59%
Barometer: 29.95 inHg , 1014.2 hPa
Clouds: Clear
Visibility: 10 miles , 16 km
2019/09/21 09:54 KMRY 210954Z AUTO 00000KT 10SM CLR 15/07 A2995 RMK AO2 SLP153 T01500067
KCCR - Concord, California, USA
Distance from station: N 50mi, 81km
Updated: Sat, 21-Sep-2019 2:53am PDT
Clear
Clear
 Wind from S
Wind: S 6 mph , 9 km/h
Temperature: 63°F , 17°C
Dew Point: 46°F , 8°C
Humidity: 56%
Barometer: 29.93 inHg , 1013.5 hPa
Clouds: Clear
Visibility: 10 miles , 16 km
2019/09/21 09:53 KCCR 210953Z AUTO 17005KT 10SM CLR 17/08 A2993 RMK AO2 SLP122 T01670083
deformed-offering